sensor_id;sensor_type;location;lat;lon;timestamp;temperature;humidity
18450;DHT22;9354;50.194;7.690;2024-02-23T00:02:05;6.30;99.90
18450;DHT22;9354;50.194;7.690;2024-02-23T00:04:32;6.10;99.90
18450;DHT22;9354;50.194;7.690;2024-02-23T00:07:00;6.10;99.90
18450;DHT22;9354;50.194;7.690;2024-02-23T00:09:28;6.00;99.90
18450;DHT22;9354;50.194;7.690;2024-02-23T00:11:57;6.00;99.90
18450;DHT22;9354;50.194;7.690;2024-02-23T00:14:25;6.00;99.90
18450;DHT22;9354;50.194;7.690;2024-02-23T00:16:52;6.00;99.90
18450;DHT22;9354;50.194;7.690;2024-02-23T00:19:19;5.90;99.90
18450;DHT22;9354;50.194;7.690;2024-02-23T00:21:47;5.90;99.90
18450;DHT22;9354;50.194;7.690;2024-02-23T00:24:16;5.80;99.90
18450;DHT22;9354;50.194;7.690;2024-02-23T00:26:43;5.80;99.90
18450;DHT22;9354;50.194;7.690;2024-02-23T00:29:13;5.80;99.90
18450;DHT22;9354;50.194;7.690;2024-02-23T00:31:41;5.70;99.90
18450;DHT22;9354;50.194;7.690;2024-02-23T00:34:08;5.70;99.90
18450;DHT22;9354;50.194;7.690;2024-02-23T00:36:38;5.70;99.90
18450;DHT22;9354;50.194;7.690;2024-02-23T00:39:06;5.70;99.90
18450;DHT22;9354;50.194;7.690;2024-02-23T00:41:34;5.60;99.90
18450;DHT22;9354;50.194;7.690;2024-02-23T00:44:01;5.60;99.90
18450;DHT22;9354;50.194;7.690;2024-02-23T00:46:31;5.60;99.90
18450;DHT22;9354;50.194;7.690;2024-02-23T00:48:59;5.50;99.90
18450;DHT22;9354;50.194;7.690;2024-02-23T00:51:26;5.50;99.90
18450;DHT22;9354;50.194;7.690;2024-02-23T00:53:53;5.50;99.90
18450;DHT22;9354;50.194;7.690;2024-02-23T00:56:21;5.50;99.90
18450;DHT22;9354;50.194;7.690;2024-02-23T00:58:49;5.50;99.90
18450;DHT22;9354;50.194;7.690;2024-02-23T01:01:16;5.50;99.90
18450;DHT22;9354;50.194;7.690;2024-02-23T01:03:45;5.40;99.90
18450;DHT22;9354;50.194;7.690;2024-02-23T01:06:12;5.40;99.90
18450;DHT22;9354;50.194;7.690;2024-02-23T01:08:40;5.40;99.90
18450;DHT22;9354;50.194;7.690;2024-02-23T01:11:07;5.40;99.90
18450;DHT22;9354;50.194;7.690;2024-02-23T01:13:34;5.40;99.90
18450;DHT22;9354;50.194;7.690;2024-02-23T01:16:03;5.40;99.90
18450;DHT22;9354;50.194;7.690;2024-02-23T01:18:30;5.40;99.90
18450;DHT22;9354;50.194;7.690;2024-02-23T01:20:59;5.40;99.90
18450;DHT22;9354;50.194;7.690;2024-02-23T01:23:26;5.40;99.90
18450;DHT22;9354;50.194;7.690;2024-02-23T01:25:54;5.30;99.90
18450;DHT22;9354;50.194;7.690;2024-02-23T01:28:21;5.30;99.90
18450;DHT22;9354;50.194;7.690;2024-02-23T01:30:49;5.30;99.90
18450;DHT22;9354;50.194;7.690;2024-02-23T01:33:16;5.30;99.90
18450;DHT22;9354;50.194;7.690;2024-02-23T01:35:43;5.30;99.90
18450;DHT22;9354;50.194;7.690;2024-02-23T01:38:12;5.30;99.90
18450;DHT22;9354;50.194;7.690;2024-02-23T01:40:45;5.30;99.90
18450;DHT22;9354;50.194;7.690;2024-02-23T01:43:12;5.30;99.90
18450;DHT22;9354;50.194;7.690;2024-02-23T01:45:40;5.30;99.90
18450;DHT22;9354;50.194;7.690;2024-02-23T01:48:07;5.40;99.90
18450;DHT22;9354;50.194;7.690;2024-02-23T01:50:35;5.30;99.90
18450;DHT22;9354;50.194;7.690;2024-02-23T01:53:04;5.30;99.90
18450;DHT22;9354;50.194;7.690;2024-02-23T01:55:33;5.40;99.90
18450;DHT22;9354;50.194;7.690;2024-02-23T01:58:00;5.30;99.90
18450;DHT22;9354;50.194;7.690;2024-02-23T02:00:29;5.30;99.90
18450;DHT22;9354;50.194;7.690;2024-02-23T02:02:57;5.30;99.90
18450;DHT22;9354;50.194;7.690;2024-02-23T02:05:25;5.30;99.90
18450;DHT22;9354;50.194;7.690;2024-02-23T02:07:53;5.30;99.90
18450;DHT22;9354;50.194;7.690;2024-02-23T02:10:25;5.30;99.90
18450;DHT22;9354;50.194;7.690;2024-02-23T02:12:54;5.30;99.90
18450;DHT22;9354;50.194;7.690;2024-02-23T02:15:21;5.30;99.90
18450;DHT22;9354;50.194;7.690;2024-02-23T02:17:49;5.30;99.90
18450;DHT22;9354;50.194;7.690;2024-02-23T02:20:18;5.30;99.90
18450;DHT22;9354;50.194;7.690;2024-02-23T02:22:49;5.30;99.90
18450;DHT22;9354;50.194;7.690;2024-02-23T02:25:17;5.30;99.90
18450;DHT22;9354;50.194;7.690;2024-02-23T02:27:45;5.30;99.90
18450;DHT22;9354;50.194;7.690;2024-02-23T02:30:14;5.30;99.90
18450;DHT22;9354;50.194;7.690;2024-02-23T02:32:41;5.30;99.90
18450;DHT22;9354;50.194;7.690;2024-02-23T02:35:11;5.30;99.90
18450;DHT22;9354;50.194;7.690;2024-02-23T02:37:38;5.30;99.90
18450;DHT22;9354;50.194;7.690;2024-02-23T02:40:07;5.30;99.90
18450;DHT22;9354;50.194;7.690;2024-02-23T02:42:34;5.30;99.90
18450;DHT22;9354;50.194;7.690;2024-02-23T02:45:02;5.40;99.90
18450;DHT22;9354;50.194;7.690;2024-02-23T02:47:31;5.40;99.90
18450;DHT22;9354;50.194;7.690;2024-02-23T02:49:58;5.40;99.90
18450;DHT22;9354;50.194;7.690;2024-02-23T02:52:26;5.40;99.90
18450;DHT22;9354;50.194;7.690;2024-02-23T02:54:54;5.30;99.90
18450;DHT22;9354;50.194;7.690;2024-02-23T02:57:22;5.30;99.90
18450;DHT22;9354;50.194;7.690;2024-02-23T02:59:49;5.30;99.90
18450;DHT22;9354;50.194;7.690;2024-02-23T03:02:17;5.30;99.90
18450;DHT22;9354;50.194;7.690;2024-02-23T03:04:49;5.30;99.90
18450;DHT22;9354;50.194;7.690;2024-02-23T03:07:17;5.30;99.90
18450;DHT22;9354;50.194;7.690;2024-02-23T03:09:44;5.30;99.90
18450;DHT22;9354;50.194;7.690;2024-02-23T03:12:12;5.30;99.90
18450;DHT22;9354;50.194;7.690;2024-02-23T03:14:39;5.20;99.90
18450;DHT22;9354;50.194;7.690;2024-02-23T03:17:07;5.20;99.90
18450;DHT22;9354;50.194;7.690;2024-02-23T03:19:35;5.30;99.90
18450;DHT22;9354;50.194;7.690;2024-02-23T03:22:04;5.20;99.90
18450;DHT22;9354;50.194;7.690;2024-02-23T03:24:32;5.20;99.90
18450;DHT22;9354;50.194;7.690;2024-02-23T03:26:59;5.20;99.90
18450;DHT22;9354;50.194;7.690;2024-02-23T03:29:27;5.20;99.90
18450;DHT22;9354;50.194;7.690;2024-02-23T03:31:55;5.10;99.90
18450;DHT22;9354;50.194;7.690;2024-02-23T03:34:22;5.10;99.90
18450;DHT22;9354;50.194;7.690;2024-02-23T03:36:50;5.00;99.90
18450;DHT22;9354;50.194;7.690;2024-02-23T03:39:19;4.90;99.90
18450;DHT22;9354;50.194;7.690;2024-02-23T03:41:46;4.90;99.90
18450;DHT22;9354;50.194;7.690;2024-02-23T03:44:13;4.80;99.90
18450;DHT22;9354;50.194;7.690;2024-02-23T03:46:41;4.80;99.90
18450;DHT22;9354;50.194;7.690;2024-02-23T03:49:08;4.80;99.90
18450;DHT22;9354;50.194;7.690;2024-02-23T03:51:36;4.80;99.90
18450;DHT22;9354;50.194;7.690;2024-02-23T03:54:05;4.80;99.90
18450;DHT22;9354;50.194;7.690;2024-02-23T03:56:39;4.80;99.90
18450;DHT22;9354;50.194;7.690;2024-02-23T03:59:07;4.80;99.90
18450;DHT22;9354;50.194;7.690;2024-02-23T04:01:36;4.80;99.90
18450;DHT22;9354;50.194;7.690;2024-02-23T04:04:04;4.80;99.90
18450;DHT22;9354;50.194;7.690;2024-02-23T04:06:32;4.80;99.90
18450;DHT22;9354;50.194;7.690;2024-02-23T04:09:00;4.80;99.90
18450;DHT22;9354;50.194;7.690;2024-02-23T04:11:27;4.80;99.90
18450;DHT22;9354;50.194;7.690;2024-02-23T04:13:56;4.80;99.90
18450;DHT22;9354;50.194;7.690;2024-02-23T04:16:24;4.80;99.90
18450;DHT22;9354;50.194;7.690;2024-02-23T04:18:51;4.80;99.90
18450;DHT22;9354;50.194;7.690;2024-02-23T04:21:18;4.80;99.90
18450;DHT22;9354;50.194;7.690;2024-02-23T04:23:46;4.80;99.90
18450;DHT22;9354;50.194;7.690;2024-02-23T04:26:13;4.80;99.90
18450;DHT22;9354;50.194;7.690;2024-02-23T04:28:41;4.80;99.90
18450;DHT22;9354;50.194;7.690;2024-02-23T04:31:10;4.80;99.90
18450;DHT22;9354;50.194;7.690;2024-02-23T04:33:38;4.80;99.90
18450;DHT22;9354;50.194;7.690;2024-02-23T04:36:06;4.80;99.90
18450;DHT22;9354;50.194;7.690;2024-02-23T04:38:34;4.80;99.90
18450;DHT22;9354;50.194;7.690;2024-02-23T04:41:03;4.80;99.90
18450;DHT22;9354;50.194;7.690;2024-02-23T04:43:31;4.80;99.90
18450;DHT22;9354;50.194;7.690;2024-02-23T04:45:58;4.80;99.90
18450;DHT22;9354;50.194;7.690;2024-02-23T04:48:27;4.80;99.90
18450;DHT22;9354;50.194;7.690;2024-02-23T04:50:58;4.80;99.90
18450;DHT22;9354;50.194;7.690;2024-02-23T04:53:26;4.80;99.90
18450;DHT22;9354;50.194;7.690;2024-02-23T04:55:54;4.80;99.90
18450;DHT22;9354;50.194;7.690;2024-02-23T04:58:22;4.80;99.90
18450;DHT22;9354;50.194;7.690;2024-02-23T05:00:49;4.80;99.90
18450;DHT22;9354;50.194;7.690;2024-02-23T05:03:16;4.80;99.90
18450;DHT22;9354;50.194;7.690;2024-02-23T05:05:44;4.80;99.90
18450;DHT22;9354;50.194;7.690;2024-02-23T05:08:12;4.80;99.90
18450;DHT22;9354;50.194;7.690;2024-02-23T05:10:39;4.80;99.90
18450;DHT22;9354;50.194;7.690;2024-02-23T05:13:07;4.80;99.90
18450;DHT22;9354;50.194;7.690;2024-02-23T05:15:34;4.80;99.90
18450;DHT22;9354;50.194;7.690;2024-02-23T05:18:01;4.80;99.90
18450;DHT22;9354;50.194;7.690;2024-02-23T05:20:29;4.70;99.90
18450;DHT22;9354;50.194;7.690;2024-02-23T05:22:58;4.70;99.90
18450;DHT22;9354;50.194;7.690;2024-02-23T05:25:25;4.70;99.90
18450;DHT22;9354;50.194;7.690;2024-02-23T05:27:53;4.70;99.90
18450;DHT22;9354;50.194;7.690;2024-02-23T05:30:20;4.60;99.90
18450;DHT22;9354;50.194;7.690;2024-02-23T05:32:48;4.60;99.90
18450;DHT22;9354;50.194;7.690;2024-02-23T05:35:15;4.60;99.90
18450;DHT22;9354;50.194;7.690;2024-02-23T05:37:43;4.50;99.90
18450;DHT22;9354;50.194;7.690;2024-02-23T05:40:12;4.50;99.90
18450;DHT22;9354;50.194;7.690;2024-02-23T05:42:39;4.50;99.90
18450;DHT22;9354;50.194;7.690;2024-02-23T05:45:07;4.50;99.90
18450;DHT22;9354;50.194;7.690;2024-02-23T05:47:36;4.60;99.90
18450;DHT22;9354;50.194;7.690;2024-02-23T05:50:04;4.60;99.90
18450;DHT22;9354;50.194;7.690;2024-02-23T05:52:32;4.60;99.90
18450;DHT22;9354;50.194;7.690;2024-02-23T05:55:00;4.60;99.90
18450;DHT22;9354;50.194;7.690;2024-02-23T05:57:28;4.60;99.90
18450;DHT22;9354;50.194;7.690;2024-02-23T05:59:56;4.60;99.90
18450;DHT22;9354;50.194;7.690;2024-02-23T06:02:24;4.60;99.90
18450;DHT22;9354;50.194;7.690;2024-02-23T06:04:52;4.60;99.90
18450;DHT22;9354;50.194;7.690;2024-02-23T06:07:19;4.70;99.90
18450;DHT22;9354;50.194;7.690;2024-02-23T06:09:53;4.70;99.90
18450;DHT22;9354;50.194;7.690;2024-02-23T06:12:20;4.70;99.90
18450;DHT22;9354;50.194;7.690;2024-02-23T06:14:50;4.70;99.90
18450;DHT22;9354;50.194;7.690;2024-02-23T06:17:17;4.70;99.90
18450;DHT22;9354;50.194;7.690;2024-02-23T06:19:45;4.70;99.90
18450;DHT22;9354;50.194;7.690;2024-02-23T06:22:12;4.60;99.90
18450;DHT22;9354;50.194;7.690;2024-02-23T06:24:42;4.50;99.90
18450;DHT22;9354;50.194;7.690;2024-02-23T06:27:10;4.40;99.90
18450;DHT22;9354;50.194;7.690;2024-02-23T06:29:37;4.40;99.90
18450;DHT22;9354;50.194;7.690;2024-02-23T06:32:06;4.30;99.90
18450;DHT22;9354;50.194;7.690;2024-02-23T06:34:34;4.20;99.90
18450;DHT22;9354;50.194;7.690;2024-02-23T06:37:01;4.20;99.90
18450;DHT22;9354;50.194;7.690;2024-02-23T06:39:29;4.20;99.90
18450;DHT22;9354;50.194;7.690;2024-02-23T06:41:56;4.10;99.90
18450;DHT22;9354;50.194;7.690;2024-02-23T06:44:26;4.10;99.90
18450;DHT22;9354;50.194;7.690;2024-02-23T06:46:54;4.10;99.90
18450;DHT22;9354;50.194;7.690;2024-02-23T06:49:22;4.10;99.90
18450;DHT22;9354;50.194;7.690;2024-02-23T06:51:50;4.10;99.90
18450;DHT22;9354;50.194;7.690;2024-02-23T06:54:17;4.10;99.90
18450;DHT22;9354;50.194;7.690;2024-02-23T06:56:45;4.20;99.90
18450;DHT22;9354;50.194;7.690;2024-02-23T06:59:12;4.10;99.90
18450;DHT22;9354;50.194;7.690;2024-02-23T07:01:48;4.10;99.90
18450;DHT22;9354;50.194;7.690;2024-02-23T07:04:16;4.20;99.90
18450;DHT22;9354;50.194;7.690;2024-02-23T07:06:45;4.10;99.90
18450;DHT22;9354;50.194;7.690;2024-02-23T07:09:12;4.10;99.90
18450;DHT22;9354;50.194;7.690;2024-02-23T07:11:40;4.10;99.90
18450;DHT22;9354;50.194;7.690;2024-02-23T07:14:09;4.10;99.90
18450;DHT22;9354;50.194;7.690;2024-02-23T07:16:39;4.10;99.90
18450;DHT22;9354;50.194;7.690;2024-02-23T07:19:06;4.10;99.90
18450;DHT22;9354;50.194;7.690;2024-02-23T07:21:34;4.10;99.90
18450;DHT22;9354;50.194;7.690;2024-02-23T07:24:04;4.10;99.90
18450;DHT22;9354;50.194;7.690;2024-02-23T07:26:31;4.10;99.90
18450;DHT22;9354;50.194;7.690;2024-02-23T07:29:08;4.20;99.90
18450;DHT22;9354;50.194;7.690;2024-02-23T07:31:35;4.20;99.90
18450;DHT22;9354;50.194;7.690;2024-02-23T07:34:02;4.20;99.90
18450;DHT22;9354;50.194;7.690;2024-02-23T07:36:30;4.20;99.90
18450;DHT22;9354;50.194;7.690;2024-02-23T07:38:57;4.30;99.90
18450;DHT22;9354;50.194;7.690;2024-02-23T07:41:26;4.30;99.90
18450;DHT22;9354;50.194;7.690;2024-02-23T07:43:53;4.30;99.90
18450;DHT22;9354;50.194;7.690;2024-02-23T07:46:21;4.40;99.90
18450;DHT22;9354;50.194;7.690;2024-02-23T07:48:49;4.40;99.90
18450;DHT22;9354;50.194;7.690;2024-02-23T07:51:16;4.40;99.90
18450;DHT22;9354;50.194;7.690;2024-02-23T07:53:45;4.50;99.90
18450;DHT22;9354;50.194;7.690;2024-02-23T07:56:12;4.50;99.90
18450;DHT22;9354;50.194;7.690;2024-02-23T07:58:41;4.50;99.90
18450;DHT22;9354;50.194;7.690;2024-02-23T08:01:08;4.60;99.90
18450;DHT22;9354;50.194;7.690;2024-02-23T08:03:36;4.60;99.90
18450;DHT22;9354;50.194;7.690;2024-02-23T08:06:04;4.60;99.90
18450;DHT22;9354;50.194;7.690;2024-02-23T08:08:31;4.70;99.90
18450;DHT22;9354;50.194;7.690;2024-02-23T08:11:01;4.70;99.90
18450;DHT22;9354;50.194;7.690;2024-02-23T08:13:28;4.70;99.90
18450;DHT22;9354;50.194;7.690;2024-02-23T08:15:58;4.70;99.90
18450;DHT22;9354;50.194;7.690;2024-02-23T08:18:25;4.80;99.90
18450;DHT22;9354;50.194;7.690;2024-02-23T08:20:53;4.80;99.90
18450;DHT22;9354;50.194;7.690;2024-02-23T08:23:20;4.90;99.90
18450;DHT22;9354;50.194;7.690;2024-02-23T08:25:49;4.90;99.90
18450;DHT22;9354;50.194;7.690;2024-02-23T08:28:16;4.90;99.90
18450;DHT22;9354;50.194;7.690;2024-02-23T08:30:43;4.90;99.90
18450;DHT22;9354;50.194;7.690;2024-02-23T08:33:12;5.00;99.90
18450;DHT22;9354;50.194;7.690;2024-02-23T08:35:40;5.00;99.90
18450;DHT22;9354;50.194;7.690;2024-02-23T08:38:07;5.00;99.90
18450;DHT22;9354;50.194;7.690;2024-02-23T08:40:35;5.00;99.90
18450;DHT22;9354;50.194;7.690;2024-02-23T08:43:02;5.00;99.90
18450;DHT22;9354;50.194;7.690;2024-02-23T08:45:39;5.10;99.90
18450;DHT22;9354;50.194;7.690;2024-02-23T08:48:07;5.10;99.90
18450;DHT22;9354;50.194;7.690;2024-02-23T08:50:36;5.10;99.90
18450;DHT22;9354;50.194;7.690;2024-02-23T08:53:04;5.10;99.90
18450;DHT22;9354;50.194;7.690;2024-02-23T08:55:31;5.10;99.90
18450;DHT22;9354;50.194;7.690;2024-02-23T08:57:59;5.10;99.90
18450;DHT22;9354;50.194;7.690;2024-02-23T09:00:26;5.10;99.90
18450;DHT22;9354;50.194;7.690;2024-02-23T09:02:54;5.20;99.90
18450;DHT22;9354;50.194;7.690;2024-02-23T09:05:22;5.20;99.90
18450;DHT22;9354;50.194;7.690;2024-02-23T09:07:50;5.20;99.90
18450;DHT22;9354;50.194;7.690;2024-02-23T09:10:19;5.20;99.90
18450;DHT22;9354;50.194;7.690;2024-02-23T09:12:46;5.30;99.90
18450;DHT22;9354;50.194;7.690;2024-02-23T09:15:14;5.30;99.90
18450;DHT22;9354;50.194;7.690;2024-02-23T09:17:41;5.30;99.90
18450;DHT22;9354;50.194;7.690;2024-02-23T09:20:10;5.30;99.90
18450;DHT22;9354;50.194;7.690;2024-02-23T09:22:38;5.40;99.90
18450;DHT22;9354;50.194;7.690;2024-02-23T09:25:07;5.50;99.90
18450;DHT22;9354;50.194;7.690;2024-02-23T09:27:35;5.70;99.90
18450;DHT22;9354;50.194;7.690;2024-02-23T09:30:10;6.00;99.90
18450;DHT22;9354;50.194;7.690;2024-02-23T09:32:38;6.10;99.90
18450;DHT22;9354;50.194;7.690;2024-02-23T09:35:06;6.10;99.90
18450;DHT22;9354;50.194;7.690;2024-02-23T09:37:33;6.10;99.90
18450;DHT22;9354;50.194;7.690;2024-02-23T09:40:01;6.00;99.90
18450;DHT22;9354;50.194;7.690;2024-02-23T09:42:30;5.90;99.90
18450;DHT22;9354;50.194;7.690;2024-02-23T09:44:59;5.80;99.90
18450;DHT22;9354;50.194;7.690;2024-02-23T09:47:28;5.80;99.90
18450;DHT22;9354;50.194;7.690;2024-02-23T09:49:55;5.80;99.90
18450;DHT22;9354;50.194;7.690;2024-02-23T09:52:23;5.80;99.90
18450;DHT22;9354;50.194;7.690;2024-02-23T09:54:51;5.90;99.90
18450;DHT22;9354;50.194;7.690;2024-02-23T09:57:18;5.90;99.90
18450;DHT22;9354;50.194;7.690;2024-02-23T09:59:48;6.00;99.90
18450;DHT22;9354;50.194;7.690;2024-02-23T10:02:16;6.10;99.90
18450;DHT22;9354;50.194;7.690;2024-02-23T10:04:44;6.10;99.90
18450;DHT22;9354;50.194;7.690;2024-02-23T10:07:12;6.10;99.90
18450;DHT22;9354;50.194;7.690;2024-02-23T10:09:41;6.10;99.90
18450;DHT22;9354;50.194;7.690;2024-02-23T10:12:08;6.00;99.90
18450;DHT22;9354;50.194;7.690;2024-02-23T10:14:36;6.00;99.90
18450;DHT22;9354;50.194;7.690;2024-02-23T10:17:06;6.00;99.90
18450;DHT22;9354;50.194;7.690;2024-02-23T10:19:34;6.10;99.90
18450;DHT22;9354;50.194;7.690;2024-02-23T10:22:02;6.10;99.90
18450;DHT22;9354;50.194;7.690;2024-02-23T10:24:29;6.10;99.90
18450;DHT22;9354;50.194;7.690;2024-02-23T10:26:56;6.20;99.90
18450;DHT22;9354;50.194;7.690;2024-02-23T10:29:25;6.20;99.90
18450;DHT22;9354;50.194;7.690;2024-02-23T10:31:52;6.30;99.90
18450;DHT22;9354;50.194;7.690;2024-02-23T10:34:26;6.40;99.90
18450;DHT22;9354;50.194;7.690;2024-02-23T10:36:54;6.60;99.90
18450;DHT22;9354;50.194;7.690;2024-02-23T10:39:24;6.70;99.90
18450;DHT22;9354;50.194;7.690;2024-02-23T10:41:57;6.80;99.90
18450;DHT22;9354;50.194;7.690;2024-02-23T10:44:27;7.00;99.90
18450;DHT22;9354;50.194;7.690;2024-02-23T10:46:55;7.20;99.90
18450;DHT22;9354;50.194;7.690;2024-02-23T10:49:25;7.30;99.90
18450;DHT22;9354;50.194;7.690;2024-02-23T10:51:54;7.40;99.90
18450;DHT22;9354;50.194;7.690;2024-02-23T10:54:22;7.30;99.90
18450;DHT22;9354;50.194;7.690;2024-02-23T10:56:50;7.20;99.90
18450;DHT22;9354;50.194;7.690;2024-02-23T10:59:18;7.30;99.90
18450;DHT22;9354;50.194;7.690;2024-02-23T11:01:48;7.50;99.90
18450;DHT22;9354;50.194;7.690;2024-02-23T11:04:17;7.60;99.90
18450;DHT22;9354;50.194;7.690;2024-02-23T11:06:50;7.90;99.90
18450;DHT22;9354;50.194;7.690;2024-02-23T11:09:21;8.10;99.90
18450;DHT22;9354;50.194;7.690;2024-02-23T11:11:53;8.40;99.90
18450;DHT22;9354;50.194;7.690;2024-02-23T11:14:29;8.40;99.90
18450;DHT22;9354;50.194;7.690;2024-02-23T11:16:58;8.50;99.90
18450;DHT22;9354;50.194;7.690;2024-02-23T11:19:33;8.50;99.90
18450;DHT22;9354;50.194;7.690;2024-02-23T11:22:03;8.40;99.90
18450;DHT22;9354;50.194;7.690;2024-02-23T11:24:31;8.30;99.90
18450;DHT22;9354;50.194;7.690;2024-02-23T11:26:59;8.10;99.90
18450;DHT22;9354;50.194;7.690;2024-02-23T11:29:34;7.90;99.90
18450;DHT22;9354;50.194;7.690;2024-02-23T11:32:02;7.70;99.90
18450;DHT22;9354;50.194;7.690;2024-02-23T11:34:30;7.50;99.90
18450;DHT22;9354;50.194;7.690;2024-02-23T11:36:57;7.30;99.90
18450;DHT22;9354;50.194;7.690;2024-02-23T11:39:37;7.20;99.90
18450;DHT22;9354;50.194;7.690;2024-02-23T11:42:06;7.10;99.90
18450;DHT22;9354;50.194;7.690;2024-02-23T11:44:33;7.00;99.90
18450;DHT22;9354;50.194;7.690;2024-02-23T11:47:02;7.00;99.90
18450;DHT22;9354;50.194;7.690;2024-02-23T11:49:30;7.00;99.90
18450;DHT22;9354;50.194;7.690;2024-02-23T11:51:57;6.90;99.90
18450;DHT22;9354;50.194;7.690;2024-02-23T11:54:25;6.90;99.90
18450;DHT22;9354;50.194;7.690;2024-02-23T11:56:54;6.90;99.90
18450;DHT22;9354;50.194;7.690;2024-02-23T11:59:22;7.00;99.90
18450;DHT22;9354;50.194;7.690;2024-02-23T12:01:50;7.00;99.90
18450;DHT22;9354;50.194;7.690;2024-02-23T12:04:17;7.10;99.90
18450;DHT22;9354;50.194;7.690;2024-02-23T12:06:45;7.10;99.90
18450;DHT22;9354;50.194;7.690;2024-02-23T12:09:13;7.30;99.90
18450;DHT22;9354;50.194;7.690;2024-02-23T12:11:41;7.50;99.90
18450;DHT22;9354;50.194;7.690;2024-02-23T12:14:10;7.60;99.90
18450;DHT22;9354;50.194;7.690;2024-02-23T12:16:40;7.80;99.90
18450;DHT22;9354;50.194;7.690;2024-02-23T12:19:08;8.00;99.90
18450;DHT22;9354;50.194;7.690;2024-02-23T12:21:35;7.90;99.90
18450;DHT22;9354;50.194;7.690;2024-02-23T12:24:04;7.90;99.90
18450;DHT22;9354;50.194;7.690;2024-02-23T12:26:32;7.90;99.90
18450;DHT22;9354;50.194;7.690;2024-02-23T12:29:00;8.20;99.90
18450;DHT22;9354;50.194;7.690;2024-02-23T12:31:31;8.40;99.90
18450;DHT22;9354;50.194;7.690;2024-02-23T12:33:59;8.60;99.90
18450;DHT22;9354;50.194;7.690;2024-02-23T12:36:26;8.70;99.90
18450;DHT22;9354;50.194;7.690;2024-02-23T12:38:53;8.80;99.90
18450;DHT22;9354;50.194;7.690;2024-02-23T12:41:21;8.70;99.90
18450;DHT22;9354;50.194;7.690;2024-02-23T12:43:48;8.50;99.90
18450;DHT22;9354;50.194;7.690;2024-02-23T12:46:16;8.20;99.90
18450;DHT22;9354;50.194;7.690;2024-02-23T12:48:45;8.00;99.90
18450;DHT22;9354;50.194;7.690;2024-02-23T12:51:12;7.80;99.90
18450;DHT22;9354;50.194;7.690;2024-02-23T12:53:41;7.70;99.90
18450;DHT22;9354;50.194;7.690;2024-02-23T12:56:10;7.60;99.90
18450;DHT22;9354;50.194;7.690;2024-02-23T12:58:38;7.60;99.90
18450;DHT22;9354;50.194;7.690;2024-02-23T13:01:06;7.60;99.90
18450;DHT22;9354;50.194;7.690;2024-02-23T13:03:34;7.50;99.90
18450;DHT22;9354;50.194;7.690;2024-02-23T13:06:04;7.40;99.90
18450;DHT22;9354;50.194;7.690;2024-02-23T13:08:32;7.30;99.90
18450;DHT22;9354;50.194;7.690;2024-02-23T13:11:00;7.20;99.90
18450;DHT22;9354;50.194;7.690;2024-02-23T13:13:28;7.20;99.90
18450;DHT22;9354;50.194;7.690;2024-02-23T13:15:55;7.30;99.90
18450;DHT22;9354;50.194;7.690;2024-02-23T13:18:23;7.30;99.90
18450;DHT22;9354;50.194;7.690;2024-02-23T13:20:50;7.40;99.90
18450;DHT22;9354;50.194;7.690;2024-02-23T13:23:19;7.50;99.90
18450;DHT22;9354;50.194;7.690;2024-02-23T13:25:46;7.40;99.90
18450;DHT22;9354;50.194;7.690;2024-02-23T13:28:14;7.40;99.90
18450;DHT22;9354;50.194;7.690;2024-02-23T13:30:41;7.40;99.90
18450;DHT22;9354;50.194;7.690;2024-02-23T13:33:10;7.40;99.90
18450;DHT22;9354;50.194;7.690;2024-02-23T13:35:38;7.30;99.90
18450;DHT22;9354;50.194;7.690;2024-02-23T13:38:06;7.30;99.90
18450;DHT22;9354;50.194;7.690;2024-02-23T13:40:35;7.30;99.90
18450;DHT22;9354;50.194;7.690;2024-02-23T13:43:02;7.30;99.90
18450;DHT22;9354;50.194;7.690;2024-02-23T13:45:29;7.30;99.90
18450;DHT22;9354;50.194;7.690;2024-02-23T13:47:58;7.30;99.90
18450;DHT22;9354;50.194;7.690;2024-02-23T13:50:25;7.30;99.90
18450;DHT22;9354;50.194;7.690;2024-02-23T13:52:52;7.30;99.90
18450;DHT22;9354;50.194;7.690;2024-02-23T13:55:20;7.40;99.90
18450;DHT22;9354;50.194;7.690;2024-02-23T13:57:49;7.30;99.90
18450;DHT22;9354;50.194;7.690;2024-02-23T14:00:18;7.30;99.90
18450;DHT22;9354;50.194;7.690;2024-02-23T14:02:46;7.40;99.90
18450;DHT22;9354;50.194;7.690;2024-02-23T14:05:13;7.40;99.90
18450;DHT22;9354;50.194;7.690;2024-02-23T14:07:41;7.40;99.90
18450;DHT22;9354;50.194;7.690;2024-02-23T14:10:09;7.30;99.90
18450;DHT22;9354;50.194;7.690;2024-02-23T14:12:36;7.20;99.90
18450;DHT22;9354;50.194;7.690;2024-02-23T14:15:06;7.00;99.90
18450;DHT22;9354;50.194;7.690;2024-02-23T14:17:34;6.90;99.90
18450;DHT22;9354;50.194;7.690;2024-02-23T14:20:01;6.80;99.90
18450;DHT22;9354;50.194;7.690;2024-02-23T14:22:29;6.70;99.90
18450;DHT22;9354;50.194;7.690;2024-02-23T14:24:57;6.60;99.90
18450;DHT22;9354;50.194;7.690;2024-02-23T14:27:25;6.70;99.90
18450;DHT22;9354;50.194;7.690;2024-02-23T14:29:53;6.80;99.90
18450;DHT22;9354;50.194;7.690;2024-02-23T14:32:21;6.90;99.90
18450;DHT22;9354;50.194;7.690;2024-02-23T14:34:49;7.20;99.90
18450;DHT22;9354;50.194;7.690;2024-02-23T14:37:17;7.50;99.90
18450;DHT22;9354;50.194;7.690;2024-02-23T14:39:44;7.90;99.90
18450;DHT22;9354;50.194;7.690;2024-02-23T14:42:12;8.10;99.90
18450;DHT22;9354;50.194;7.690;2024-02-23T14:44:39;8.30;99.90
18450;DHT22;9354;50.194;7.690;2024-02-23T14:47:07;8.50;99.90
18450;DHT22;9354;50.194;7.690;2024-02-23T14:49:44;8.60;99.90
18450;DHT22;9354;50.194;7.690;2024-02-23T14:52:12;8.70;99.90
18450;DHT22;9354;50.194;7.690;2024-02-23T14:54:41;8.70;99.90
18450;DHT22;9354;50.194;7.690;2024-02-23T14:57:08;8.80;99.90
18450;DHT22;9354;50.194;7.690;2024-02-23T14:59:36;8.70;99.90
18450;DHT22;9354;50.194;7.690;2024-02-23T15:02:08;8.80;99.90
18450;DHT22;9354;50.194;7.690;2024-02-23T15:04:36;8.80;99.90
18450;DHT22;9354;50.194;7.690;2024-02-23T15:07:05;8.80;99.90
18450;DHT22;9354;50.194;7.690;2024-02-23T15:09:32;8.80;99.90
18450;DHT22;9354;50.194;7.690;2024-02-23T15:12:01;8.80;99.90
18450;DHT22;9354;50.194;7.690;2024-02-23T15:14:28;8.80;99.90
18450;DHT22;9354;50.194;7.690;2024-02-23T15:16:56;8.70;99.90
18450;DHT22;9354;50.194;7.690;2024-02-23T15:19:23;8.60;99.90
18450;DHT22;9354;50.194;7.690;2024-02-23T15:21:53;8.50;99.90
18450;DHT22;9354;50.194;7.690;2024-02-23T15:24:22;8.30;99.90
18450;DHT22;9354;50.194;7.690;2024-02-23T15:26:50;8.10;99.90
18450;DHT22;9354;50.194;7.690;2024-02-23T15:29:18;7.90;99.90
18450;DHT22;9354;50.194;7.690;2024-02-23T15:31:45;7.80;99.90
18450;DHT22;9354;50.194;7.690;2024-02-23T15:34:12;7.70;99.90
18450;DHT22;9354;50.194;7.690;2024-02-23T15:36:40;7.60;99.90
18450;DHT22;9354;50.194;7.690;2024-02-23T15:39:07;7.50;99.90
18450;DHT22;9354;50.194;7.690;2024-02-23T15:41:36;7.60;99.90
18450;DHT22;9354;50.194;7.690;2024-02-23T15:44:04;7.60;99.90
18450;DHT22;9354;50.194;7.690;2024-02-23T15:46:31;7.70;99.90
18450;DHT22;9354;50.194;7.690;2024-02-23T15:48:59;7.70;99.90
18450;DHT22;9354;50.194;7.690;2024-02-23T15:51:26;7.70;99.90
18450;DHT22;9354;50.194;7.690;2024-02-23T15:53:54;7.70;99.90
18450;DHT22;9354;50.194;7.690;2024-02-23T15:56:21;7.60;99.90
18450;DHT22;9354;50.194;7.690;2024-02-23T15:58:50;7.60;99.90
18450;DHT22;9354;50.194;7.690;2024-02-23T16:01:19;7.60;99.90
18450;DHT22;9354;50.194;7.690;2024-02-23T16:03:47;7.60;99.90
18450;DHT22;9354;50.194;7.690;2024-02-23T16:06:14;7.60;99.90
18450;DHT22;9354;50.194;7.690;2024-02-23T16:08:43;7.70;99.90